This is the latest recevied weather packets stored in our database for station/object W7TJC. If no packets are shown the sender has not sent any weather packets the latest 10 day(s).
| Time | Temp. | Humidity | Pressure | Rain* | Wind** | Luminosity | Snow |
|---|---|---|---|---|---|---|---|
| 1778031609 | 16.67° C | 77% | 1016.2 hPa | 0 mm | - | 10 W/m² | - |
| 1778031308 | 16.67° C | 77% | 1016.5 hPa | 0 mm | - | 27 W/m² | - |
| 1778031004 | 16.67° C | 77% | 1016.1 hPa | 0 mm | - | 11 W/m² | - |
| 1778030700 | 16.67° C | 77% | 1016.2 hPa | 0 mm | - | 12 W/m² | - |
| 1778030397 | 16.67° C | 76% | 1016.2 hPa | 0 mm | - | 12 W/m² | - |
| 1778030094 | 16.67° C | 76% | 1016.4 hPa | 0 mm | - | 12 W/m² | - |
| 1778029790 | 16.67° C | 76% | 1016.3 hPa | 0 mm | - | 12 W/m² | - |
| 1778029490 | 17.22° C | 76% | 1016.2 hPa | 0 mm | - | 18 W/m² | - |
| 1778029185 | 17.22° C | 76% | 1016.1 hPa | 0 mm | - | 13 W/m² | - |
| 1778028884 | 17.22° C | 75% | 1016.2 hPa | 0 mm | - | 13 W/m² | - |
| 1778028578 | 17.22° C | 76% | 1016.1 hPa | 0 mm | - | 14 W/m² | - |
| 1778028277 | 17.22° C | 75% | 1016.3 hPa | 0 mm | - | 14 W/m² | - |
| 1778027972 | 17.22° C | 76% | 1016.2 hPa | 0 mm | - | 15 W/m² | - |
| 1778027669 | 16.67° C | 77% | 1016.4 hPa | 0 mm | - | 15 W/m² | - |
| 1778027366 | 16.67° C | 77% | 1016.3 hPa | 0 mm | - | 16 W/m² | - |
| 1778027062 | 16.67° C | 77% | 1016.4 hPa | 0 mm | - | 16 W/m² | - |
| 1778026757 | 16.67° C | 76% | 1016.5 hPa | 0 mm | - | 35 W/m² | - |
| 1778026455 | 16.67° C | 75% | 1016.3 hPa | 0 mm | - | 17 W/m² | - |
| 1778026152 | 16.67° C | 77% | 1016.3 hPa | 0 mm | - | 23 W/m² | - |
| 1778025849 | 16.67° C | 76% | 1016.4 hPa | 0 mm | - | 25 W/m² | - |
| 1778025546 | 16.67° C | 76% | 1016.7 hPa | 0 mm | - | 27 W/m² | - |
| 1778025244 | 16.67° C | 76% | 1016.5 hPa | 0 mm | - | 22 W/m² | - |
| 1778024940 | 16.67° C | 75% | 1016.5 hPa | 0 mm | - | 19 W/m² | - |
| 1778024638 | 17.22° C | 76% | 1016.6 hPa | 0 mm | - | 20 W/m² | - |
| 1778024334 | 17.22° C | 76% | 1016.8 hPa | 0 mm | - | 21 W/m² | - |
* Rain latest hour (hover to see other rain measurements)
** Current wind speed in m/s (hover to see current wind gust speed)